Time;durP1;ratioP1;P1;durP2;ratioP2;P2;SDS_P1;SDS_P2;PMS_P1;PMS_P2;Temp;Humidity;BMP_temperature;BMP_pressure;BME280_temperature;BME280_humidity;BME280_pressure;Samples;Min_cycle;Max_cycle;Signal;HPM_P1;HPM_P2
2022/03/20 00:02:07;;;;;;;21.70;19.13;;;6.80;88.40;;;;;;10466801;28;20208;-81
2022/03/20 00:07:11;;;;;;;21.43;19.00;;;6.80;88.60;;;;;;10458267;28;20213;-81
2022/03/20 00:12:13;;;;;;;20.07;18.07;;;6.80;87.70;;;;;;10469086;28;20389;-81
2022/03/20 00:17:17;;;;;;;20.10;17.97;;;6.80;86.20;;;;;;10450271;28;20217;-80
2022/03/20 00:22:19;;;;;;;20.37;18.20;;;6.90;85.20;;;;;;10430041;28;20201;-80
2022/03/20 00:27:22;;;;;;;20.53;18.40;;;6.80;85.50;;;;;;10478207;28;20633;-80
2022/03/20 00:32:25;;;;;;;21.60;19.20;;;6.80;85.40;;;;;;10430161;28;20301;-81
2022/03/20 00:37:28;;;;;;;21.43;19.30;;;6.70;86.40;;;;;;10420081;28;20214;-83
2022/03/20 00:42:30;;;;;;;21.80;19.27;;;6.70;86.50;;;;;;10450388;28;20199;-80
2022/03/20 00:47:34;;;;;;;20.57;18.33;;;6.70;86.30;;;;;;10465365;28;20256;-81
2022/03/20 00:52:36;;;;;;;20.20;17.67;;;6.70;86.40;;;;;;10473987;28;20208;-80
2022/03/20 00:57:38;;;;;;;22.93;19.27;;;6.80;87.00;;;;;;10471892;28;20267;-82
2022/03/20 01:02:43;;;;;;;20.20;18.17;;;6.80;85.60;;;;;;10455977;28;20211;-83
2022/03/20 01:07:46;;;;;;;21.03;17.63;;;6.80;84.90;;;;;;10449201;28;20229;-83
2022/03/20 01:12:48;;;;;;;20.03;17.33;;;6.80;85.30;;;;;;10426004;28;20236;-83
2022/03/20 01:17:52;;;;;;;19.30;17.23;;;6.80;83.20;;;;;;10434494;28;20708;-79
2022/03/20 01:22:55;;;;;;;19.67;17.57;;;6.70;83.40;;;;;;10468571;28;20205;-81
2022/03/20 01:27:57;;;;;;;17.90;16.07;;;6.60;84.10;;;;;;10456776;28;20225;-81
2022/03/20 01:33:01;;;;;;;18.23;16.33;;;6.60;84.50;;;;;;10448168;28;20200;-81
2022/03/20 01:38:04;;;;;;;19.20;17.20;;;6.60;83.40;;;;;;10470998;28;20217;-80
2022/03/20 01:43:07;;;;;;;19.73;17.57;;;6.60;86.30;;;;;;10460495;28;20212;-82
2022/03/20 01:48:10;;;;;;;20.53;18.40;;;6.60;85.20;;;;;;10454734;28;20252;-82
2022/03/20 01:53:13;;;;;;;20.33;17.47;;;6.70;83.20;;;;;;10430918;28;20198;-81
2022/03/20 01:58:16;;;;;;;18.80;16.83;;;6.60;84.10;;;;;;10444601;28;20255;-81
2022/03/20 02:03:20;;;;;;;18.60;16.73;;;6.60;83.10;;;;;;10456484;28;20201;-80
2022/03/20 02:08:25;;;;;;;19.30;17.30;;;6.60;83.20;;;;;;10461687;28;20221;-81
2022/03/20 02:13:28;;;;;;;20.73;18.00;;;6.60;81.80;;;;;;10457544;28;20197;-80
2022/03/20 02:18:32;;;;;;;20.40;16.93;;;6.60;84.60;;;;;;10469640;28;20240;-80
2022/03/20 02:23:36;;;;;;;20.27;18.20;;;6.60;84.00;;;;;;10462382;28;20201;-80
2022/03/20 02:28:38;;;;;;;21.87;18.43;;;6.60;82.80;;;;;;10463258;28;20308;-80
2022/03/20 02:33:41;;;;;;;21.33;18.27;;;6.60;84.40;;;;;;10439756;28;20784;-81
2022/03/20 02:38:46;;;;;;;20.37;17.73;;;6.60;84.10;;;;;;10464333;28;20263;-80
2022/03/20 02:43:51;;;;;;;18.60;16.60;;;6.60;84.50;;;;;;10453446;28;20229;-81
2022/03/20 02:48:54;;;;;;;19.40;17.40;;;6.70;84.60;;;;;;10461473;28;20302;-80
2022/03/20 02:53:58;;;;;;;23.50;17.53;;;6.70;85.10;;;;;;10468663;28;20193;-81
2022/03/20 02:59:00;;;;;;;21.20;19.00;;;6.70;85.50;;;;;;10500407;22;20302;-80
2022/03/20 03:04:02;;;;;;;21.63;19.37;;;6.70;85.20;;;;;;10487174;28;20231;-82
2022/03/20 03:19:44;;;;;;;21.83;19.30;;;6.70;85.90;;;;;;10453225;28;20299;-81
2022/03/20 03:24:47;;;;;;;20.70;18.50;;;6.70;85.00;;;;;;10485615;28;20201;-81
2022/03/20 03:29:50;;;;;;;21.70;19.47;;;6.70;83.50;;;;;;10454762;28;20221;-82
2022/03/20 03:40:13;;;;;;;22.70;19.57;;;6.70;85.10;;;;;;10479586;28;20203;-82
2022/03/20 03:45:15;;;;;;;19.47;17.57;;;6.70;86.70;;;;;;10474884;28;20231;-82
2022/03/20 03:50:19;;;;;;;21.30;19.07;;;6.80;85.70;;;;;;10500756;28;20306;-82
2022/03/20 03:55:23;;;;;;;20.63;18.23;;;6.90;84.60;;;;;;10483706;28;20288;-82
2022/03/20 04:00:26;;;;;;;19.63;17.53;;;6.90;86.30;;;;;;10483592;28;20271;-83
2022/03/20 04:05:28;;;;;;;21.53;19.23;;;6.90;85.30;;;;;;10490624;28;20536;-82
2022/03/20 04:10:32;;;;;;;21.50;19.30;;;6.90;86.50;;;;;;10474283;28;20213;-82
2022/03/20 04:15:34;;;;;;;20.73;17.90;;;6.90;86.00;;;;;;10495559;28;20248;-81
2022/03/20 04:20:37;;;;;;;20.60;18.37;;;6.90;86.70;;;;;;10502323;28;20200;-80
2022/03/20 04:25:41;;;;;;;19.77;17.77;;;6.90;87.40;;;;;;10485462;28;20228;-80
2022/03/20 04:30:43;;;;;;;22.27;18.80;;;6.90;87.50;;;;;;10478901;28;20209;-80
2022/03/20 04:35:45;;;;;;;20.77;18.67;;;6.90;86.90;;;;;;10475369;28;20276;-80
2022/03/20 04:40:49;;;;;;;22.60;19.60;;;6.90;88.00;;;;;;10486192;28;20205;-79
2022/03/20 04:45:51;;;;;;;25.13;19.27;;;6.90;87.60;;;;;;10499699;28;20692;-79
2022/03/20 05:01:34;;;;;;;22.50;20.20;;;7.00;89.30;;;;;;10483161;28;20283;-80
2022/03/20 05:06:36;;;;;;;22.57;20.13;;;7.10;89.20;;;;;;10482644;28;20232;-79
2022/03/20 05:17:00;;;;;;;24.77;21.00;;;7.30;87.80;;;;;;10475162;28;20217;-81
2022/03/20 05:22:03;;;;;;;23.20;20.63;;;7.40;86.30;;;;;;10493772;28;20201;-80
2022/03/20 05:27:07;;;;;;;24.00;21.40;;;7.40;85.70;;;;;;10490092;28;20689;-80
2022/03/20 05:32:10;;;;;;;22.77;20.33;;;7.50;87.00;;;;;;10493878;28;20609;-79
2022/03/20 05:37:12;;;;;;;24.10;21.50;;;7.60;88.10;;;;;;10493347;28;20212;-79
2022/03/20 05:42:16;;;;;;;26.63;22.47;;;7.70;83.70;;;;;;10498523;28;20215;-79
2022/03/20 05:47:18;;;;;;;24.10;21.27;;;7.80;85.70;;;;;;10465116;28;20558;-81
2022/03/20 05:52:21;;;;;;;23.90;20.87;;;7.80;86.60;;;;;;10469687;28;20235;-81
2022/03/20 06:02:44;;;;;;;24.70;22.00;;;8.10;85.30;;;;;;10494880;28;20201;-80
2022/03/20 06:07:47;;;;;;;26.63;21.87;;;8.20;84.00;;;;;;10491652;28;20213;-81
2022/03/20 06:12:50;;;;;;;24.13;21.60;;;8.30;83.60;;;;;;10497891;28;20243;-80
2022/03/20 06:17:52;;;;;;;24.40;21.80;;;8.40;81.60;;;;;;10483530;28;20217;-79
2022/03/20 06:22:54;;;;;;;25.03;21.90;;;8.50;80.10;;;;;;10494228;28;20201;-81
2022/03/20 06:28:00;;;;;;;25.20;21.80;;;8.60;79.70;;;;;;10491443;28;20346;-80
2022/03/20 06:33:03;;;;;;;24.63;21.93;;;8.50;77.40;;;;;;10460435;28;20594;-79
2022/03/20 06:38:05;;;;;;;24.73;21.90;;;8.60;78.00;;;;;;10491825;28;20217;-79
2022/03/20 06:43:08;;;;;;;26.83;23.03;;;8.60;77.30;;;;;;10492726;28;20204;-79
2022/03/20 06:48:10;;;;;;;27.13;23.20;;;8.60;79.30;;;;;;10491660;28;20224;-79
2022/03/20 06:53:13;;;;;;;25.27;22.47;;;8.70;78.10;;;;;;10493742;28;20272;-82
2022/03/20 06:58:18;;;;;;;25.70;23.00;;;8.80;81.60;;;;;;10501242;28;20224;-81
2022/03/20 07:03:21;;;;;;;27.07;23.20;;;8.80;81.80;;;;;;10494024;28;20250;-82
2022/03/20 07:08:23;;;;;;;24.87;22.20;;;8.90;82.80;;;;;;10511762;28;20700;-82
2022/03/20 07:18:47;;;;;;;28.07;24.50;;;9.00;83.20;;;;;;10500283;28;20350;-82
2022/03/20 07:23:51;;;;;;;25.50;22.20;;;9.10;84.00;;;;;;10495286;28;20192;-80
2022/03/20 07:34:14;;;;;;;26.03;23.20;;;9.20;84.50;;;;;;10482839;28;20197;-81
2022/03/20 07:39:17;;;;;;;26.20;21.73;;;9.20;83.30;;;;;;10492579;28;20208;-82
2022/03/20 07:44:22;;;;;;;27.83;24.47;;;9.30;82.50;;;;;;10494362;28;20201;-82
2022/03/20 07:49:26;;;;;;;27.43;23.30;;;9.30;83.60;;;;;;10489340;28;20224;-82
2022/03/20 07:54:28;;;;;;;25.87;23.10;;;9.40;84.10;;;;;;10490668;28;20207;-82
2022/03/20 07:59:32;;;;;;;26.73;23.07;;;9.50;85.30;;;;;;10476559;28;20278;-82
2022/03/20 08:04:34;;;;;;;27.70;24.73;;;9.80;84.80;;;;;;10479666;28;20574;-82
2022/03/20 08:09:36;;;;;;;27.63;24.63;;;10.00;80.70;;;;;;10510620;28;20228;-81
2022/03/20 08:14:41;;;;;;;27.17;23.37;;;10.10;77.80;;;;;;10511529;28;20205;-82
2022/03/20 08:19:43;;;;;;;27.43;24.53;;;10.30;78.80;;;;;;10492156;28;20221;-82
2022/03/20 08:24:47;;;;;;;29.50;25.30;;;10.50;78.00;;;;;;10485052;28;20276;-82
2022/03/20 08:29:50;;;;;;;25.90;23.10;;;10.70;79.60;;;;;;10499328;28;20224;-82
2022/03/20 08:34:52;;;;;;;25.57;22.87;;;10.80;81.20;;;;;;10489898;28;20229;-82
2022/03/20 08:39:54;;;;;;;28.13;25.17;;;11.00;81.10;;;;;;10497169;28;20217;-82
2022/03/20 08:44:58;;;;;;;24.40;21.80;;;11.20;79.60;;;;;;10486799;28;20197;-82
2022/03/20 08:50:00;;;;;;;25.87;23.00;;;11.30;81.00;;;;;;10497351;28;20224;-82
2022/03/20 08:55:09;;;;;;;24.87;21.77;;;11.50;80.50;;;;;;10476870;28;20205;-82
2022/03/20 09:00:16;;;;;;;28.80;25.00;;;11.60;79.50;;;;;;10458672;22;20240;-79
2022/03/20 09:05:20;;;;;;;28.20;24.80;;;11.80;78.70;;;;;;10456480;28;20213;-81
2022/03/20 09:10:22;;;;;;;24.17;21.60;;;11.90;78.80;;;;;;10449552;28;20227;-78
2022/03/20 09:15:26;;;;;;;25.57;22.87;;;12.10;79.50;;;;;;10456393;28;20684;-78
2022/03/20 09:20:28;;;;;;;27.93;23.23;;;12.30;76.50;;;;;;10451320;28;20197;-78
2022/03/20 09:25:31;;;;;;;22.00;19.70;;;12.40;76.30;;;;;;10436871;28;20285;-77
2022/03/20 09:30:38;;;;;;;25.00;21.40;;;12.60;76.70;;;;;;10448882;28;20225;-78
2022/03/20 09:35:40;;;;;;;23.77;21.17;;;12.90;77.90;;;;;;10445343;28;20193;-78
2022/03/20 09:40:44;;;;;;;23.23;20.70;;;13.10;75.40;;;;;;10453143;28;20197;-78
2022/03/20 09:45:49;;;;;;;23.77;21.30;;;13.40;74.50;;;;;;10436801;28;20198;-80
2022/03/20 09:50:51;;;;;;;22.37;19.67;;;13.70;73.30;;;;;;10452096;28;20308;-81
2022/03/20 09:55:55;;;;;;;21.80;19.03;;;14.00;70.20;;;;;;10458181;28;20311;-80
2022/03/20 10:01:00;;;;;;;21.90;19.60;;;14.20;69.00;;;;;;10450220;28;20325;-81
2022/03/20 10:06:07;;;;;;;21.50;19.00;;;14.50;70.00;;;;;;10402104;28;20253;-80
2022/03/20 10:11:15;;;;;;;21.43;18.70;;;14.90;70.10;;;;;;10453682;28;20225;-81
2022/03/20 10:16:19;;;;;;;18.37;16.50;;;15.40;70.30;;;;;;10444394;28;20225;-80
2022/03/20 10:21:21;;;;;;;22.80;16.80;;;15.80;71.80;;;;;;10457589;28;20201;-81
2022/03/20 10:26:23;;;;;;;18.73;16.07;;;16.10;71.50;;;;;;10447820;28;20217;-78
2022/03/20 10:31:27;;;;;;;19.20;16.53;;;16.40;70.90;;;;;;10434244;28;20593;-79
2022/03/20 10:36:29;;;;;;;19.43;16.37;;;16.40;70.20;;;;;;10445562;28;20602;-80
2022/03/20 10:41:34;;;;;;;21.00;18.00;;;16.20;69.30;;;;;;10419281;28;20198;-79
2022/03/20 10:46:38;;;;;;;19.50;16.97;;;16.00;69.80;;;;;;10445871;28;20221;-78
2022/03/20 10:51:42;;;;;;;17.80;15.90;;;15.90;73.00;;;;;;10427079;28;20241;-79
2022/03/20 10:56:53;;;;;;;20.00;16.17;;;15.90;70.80;;;;;;10413763;28;20648;-80
2022/03/20 11:01:58;;;;;;;18.80;16.23;;;16.00;70.80;;;;;;10428525;28;20193;-79
2022/03/20 11:07:06;;;;;;;19.80;16.30;;;16.00;71.40;;;;;;10430514;28;20569;-79
2022/03/20 11:12:10;;;;;;;23.63;17.70;;;16.00;69.80;;;;;;10405619;28;20341;-80
2022/03/20 11:17:18;;;;;;;18.40;15.37;;;16.00;68.60;;;;;;10417734;28;20226;-79
2022/03/20 11:22:22;;;;;;;17.17;15.37;;;15.90;73.60;;;;;;10398054;28;20259;-79
2022/03/20 11:27:27;;;;;;;18.83;16.13;;;16.00;73.80;;;;;;10418599;28;20217;-80
2022/03/20 11:32:31;;;;;;;17.83;15.30;;;16.10;72.30;;;;;;10395415;28;20217;-82
2022/03/20 11:37:44;;;;;;;15.93;14.17;;;16.20;70.90;;;;;;10424220;28;20217;-82
2022/03/20 11:42:46;;;;;;;16.77;14.70;;;16.30;66.80;;;;;;10398777;28;20788;-79
2022/03/20 11:48:12;;;;;;;16.50;14.67;;;16.10;67.50;;;;;;10415998;28;20566;-78
2022/03/20 11:53:27;;;;;;;22.30;12.30;;;15.90;70.00;;;;;;10418611;28;20198;-78
2022/03/20 11:58:36;;;;;;;15.73;13.70;;;15.50;72.40;;;;;;10395310;28;20231;-79
2022/03/20 12:04:07;;;;;;;15.40;13.80;;;15.40;67.50;;;;;;10411224;28;20186;-79
2022/03/20 12:09:42;;;;;;;15.53;13.93;;;15.30;68.90;;;;;;10390660;28;20244;-79
2022/03/20 12:14:51;;;;;;;13.00;11.60;;;15.10;71.20;;;;;;10387752;28;20202;-79
2022/03/20 12:19:55;;;;;;;14.30;11.77;;;14.90;72.70;;;;;;10420618;28;20585;-79
2022/03/20 12:25:00;;;;;;;19.43;14.00;;;14.80;73.00;;;;;;10405700;28;20202;-79
2022/03/20 12:30:43;;;;;;;17.87;14.60;;;14.80;69.00;;;;;;10436457;28;20220;-79
2022/03/20 12:35:47;;;;;;;17.63;14.20;;;15.10;67.90;;;;;;10446405;28;20196;-79
2022/03/20 12:40:50;;;;;;;13.50;12.10;;;15.00;68.60;;;;;;10431959;28;20205;-79
2022/03/20 12:45:52;;;;;;;18.57;14.60;;;15.10;68.50;;;;;;10429869;28;20527;-79
2022/03/20 12:50:59;;;;;;;15.40;13.30;;;15.20;66.20;;;;;;10412818;28;20227;-79
2022/03/20 12:56:04;;;;;;;13.50;12.07;;;15.20;71.70;;;;;;10443928;28;20267;-78
2022/03/20 13:01:10;;;;;;;16.80;12.93;;;15.10;69.90;;;;;;10448077;28;20255;-78
2022/03/20 13:06:14;;;;;;;13.53;11.93;;;15.20;66.60;;;;;;10414408;28;20264;-80
2022/03/20 13:16:47;;;;;;;17.80;11.20;;;15.20;65.90;;;;;;10398704;28;20701;-82
2022/03/20 13:21:51;;;;;;;14.80;11.67;;;15.20;66.10;;;;;;10420980;28;20231;-83
2022/03/20 13:26:57;;;;;;;15.17;11.40;;;15.50;62.50;;;;;;10441555;28;20736;-80
2022/03/20 13:32:04;;;;;;;18.80;15.17;;;15.50;63.30;;;;;;10440951;28;20895;-81
2022/03/20 13:37:10;;;;;;;15.37;13.50;;;15.70;62.00;;;;;;10451795;28;20583;-80
2022/03/20 13:42:18;;;;;;;16.70;13.53;;;15.70;61.00;;;;;;10459483;28;20201;-81
2022/03/20 13:47:21;;;;;;;20.67;13.97;;;15.60;63.10;;;;;;10450417;28;20584;-80
2022/03/20 13:52:32;;;;;;;19.17;14.00;;;15.60;61.80;;;;;;10443190;28;20220;-79
2022/03/20 13:57:47;;;;;;;14.07;12.60;;;15.70;61.10;;;;;;10434834;28;20229;-79
2022/03/20 14:02:51;;;;;;;15.10;13.30;;;15.60;62.90;;;;;;10438988;28;20193;-79
2022/03/20 14:08:15;;;;;;;14.17;12.73;;;15.60;60.20;;;;;;10438437;28;20232;-78
2022/03/20 14:13:23;;;;;;;16.10;11.53;;;15.60;58.90;;;;;;10449330;28;20665;-80
2022/03/20 14:18:26;;;;;;;12.40;11.10;;;15.70;58.40;;;;;;10450382;28;20225;-80
2022/03/20 14:23:34;;;;;;;17.33;11.63;;;15.90;57.20;;;;;;10450817;28;20548;-80
2022/03/20 14:28:38;;;;;;;12.10;10.03;;;15.90;57.60;;;;;;10448114;28;20669;-80
2022/03/20 14:39:28;;;;;;;13.53;11.50;;;15.90;58.90;;;;;;10432938;28;20214;-83
2022/03/20 14:44:31;;;;;;;12.73;10.60;;;15.70;58.50;;;;;;10449342;28;20205;-81
2022/03/20 14:49:34;;;;;;;13.50;11.30;;;15.60;59.40;;;;;;10460258;28;20584;-81
2022/03/20 14:54:37;;;;;;;14.60;11.33;;;15.50;56.90;;;;;;10456368;28;20740;-78
2022/03/20 14:59:40;;;;;;;13.90;12.47;;;15.50;59.40;;;;;;10453811;28;20656;-79
2022/03/20 15:04:42;;;;;;;17.70;14.80;;;15.40;62.40;;;;;;10458865;28;20198;-78
2022/03/20 15:15:07;;;;;;;18.67;16.70;;;15.60;56.20;;;;;;10420916;28;20198;-78
2022/03/20 15:20:10;;;;;;;19.63;17.00;;;15.60;56.70;;;;;;10441995;28;20767;-78
2022/03/20 15:25:14;;;;;;;18.00;15.60;;;15.90;55.00;;;;;;10415259;28;20193;-78
2022/03/20 15:30:19;;;;;;;17.37;15.50;;;15.90;56.50;;;;;;10405302;28;20214;-82
2022/03/20 15:35:21;;;;;;;18.60;14.27;;;15.90;58.80;;;;;;10430718;28;20194;-79
2022/03/20 15:40:25;;;;;;;13.13;11.83;;;15.80;59.10;;;;;;10406227;28;20213;-82
2022/03/20 15:45:27;;;;;;;19.10;15.47;;;15.70;60.20;;;;;;10418868;28;20595;-81
2022/03/20 15:50:50;;;;;;;18.00;15.30;;;15.60;60.00;;;;;;10419158;28;20230;-81
2022/03/20 15:55:56;;;;;;;15.23;13.60;;;15.60;56.60;;;;;;10394458;28;20244;-81
2022/03/20 16:00:59;;;;;;;17.20;15.30;;;15.60;58.50;;;;;;10418273;28;20255;-82
2022/03/20 16:06:02;;;;;;;16.03;14.20;;;15.60;56.70;;;;;;10399934;28;20312;-79
2022/03/20 16:11:06;;;;;;;18.80;15.60;;;15.50;56.90;;;;;;10400119;28;20648;-81
2022/03/20 16:16:17;;;;;;;16.37;14.03;;;15.50;58.70;;;;;;10398324;28;20217;-81
2022/03/20 16:21:20;;;;;;;19.80;16.87;;;15.30;61.80;;;;;;10396929;28;20190;-80
2022/03/20 16:31:43;;;;;;;20.50;17.90;;;15.50;57.70;;;;;;10415808;28;20220;-82
2022/03/20 16:36:46;;;;;;;22.60;16.40;;;15.50;54.90;;;;;;10426295;28;20221;-82
2022/03/20 16:41:50;;;;;;;18.40;16.03;;;15.50;55.00;;;;;;10422992;28;20255;-82
2022/03/20 16:46:53;;;;;;;21.10;17.37;;;15.50;54.80;;;;;;10406858;28;20660;-80
2022/03/20 16:51:55;;;;;;;24.33;17.13;;;15.50;53.70;;;;;;10401209;28;20237;-82
2022/03/20 16:56:59;;;;;;;19.63;16.20;;;15.40;54.00;;;;;;10415896;28;20649;-80
2022/03/20 17:02:06;;;;;;;19.70;16.40;;;15.40;53.50;;;;;;10400582;28;20216;-82
2022/03/20 17:07:09;;;;;;;17.40;14.37;;;15.30;52.60;;;;;;10416724;28;20225;-82
2022/03/20 17:12:15;;;;;;;18.60;14.80;;;15.20;52.50;;;;;;10412608;28;20581;-82
2022/03/20 17:17:17;;;;;;;16.63;14.40;;;15.10;53.60;;;;;;10421716;28;20650;-81
2022/03/20 17:22:19;;;;;;;17.77;13.27;;;15.00;52.50;;;;;;10437349;28;20570;-82
2022/03/20 17:27:24;;;;;;;17.60;15.60;;;14.90;52.20;;;;;;10419260;28;20225;-82
2022/03/20 17:32:27;;;;;;;17.17;14.27;;;14.80;53.30;;;;;;10422169;28;20686;-82
2022/03/20 17:37:29;;;;;;;18.57;14.70;;;14.80;52.30;;;;;;10425162;28;20702;-82
2022/03/20 17:42:34;;;;;;;17.33;14.30;;;14.80;52.90;;;;;;10426629;28;20193;-82
2022/03/20 17:47:36;;;;;;;17.67;15.50;;;14.60;53.10;;;;;;10418363;28;20218;-82
2022/03/20 17:52:39;;;;;;;17.87;14.60;;;14.50;53.60;;;;;;10426635;28;20237;-83
2022/03/20 17:57:43;;;;;;;18.50;14.97;;;14.40;56.30;;;;;;10403756;28;20236;-82
2022/03/20 18:08:06;;;;;;;17.73;15.33;;;14.20;55.90;;;;;;10417938;28;20214;-81
2022/03/20 18:13:13;;;;;;;18.27;15.27;;;14.10;55.70;;;;;;10434178;28;20221;-81
2022/03/20 18:18:16;;;;;;;15.50;14.00;;;14.00;57.10;;;;;;10437745;28;20309;-83
2022/03/20 18:23:18;;;;;;;16.90;15.10;;;13.80;60.00;;;;;;10434361;28;20205;-83
2022/03/20 18:28:21;;;;;;;14.83;13.23;;;13.60;62.80;;;;;;10427116;28;20337;-82
2022/03/20 18:33:25;;;;;;;16.77;15.00;;;13.50;63.90;;;;;;10441482;28;20578;-82
2022/03/20 18:38:27;;;;;;;23.50;15.73;;;13.30;63.20;;;;;;10450979;28;20230;-82
2022/03/20 18:43:31;;;;;;;20.37;17.57;;;13.20;61.90;;;;;;10416749;28;20682;-82
2022/03/20 18:48:34;;;;;;;19.37;16.87;;;13.10;61.60;;;;;;10427466;28;20221;-82
2022/03/20 18:53:36;;;;;;;17.57;15.33;;;12.90;63.00;;;;;;10446573;28;20352;-82
2022/03/20 18:58:40;;;;;;;16.13;14.47;;;12.70;62.70;;;;;;10429874;28;20249;-82
2022/03/20 19:03:42;;;;;;;16.17;14.57;;;12.60;62.60;;;;;;10428323;28;20202;-82
2022/03/20 19:08:44;;;;;;;16.23;14.57;;;12.50;63.40;;;;;;10434934;28;20225;-82
2022/03/20 19:13:47;;;;;;;16.07;14.40;;;12.40;63.60;;;;;;10422371;28;20264;-82
2022/03/20 19:18:49;;;;;;;18.10;14.30;;;12.30;62.30;;;;;;10409640;28;20217;-81
2022/03/20 19:23:51;;;;;;;21.73;16.57;;;12.40;59.30;;;;;;10410439;28;20237;-81
2022/03/20 19:28:55;;;;;;;17.27;15.47;;;12.40;59.80;;;;;;10418345;28;20214;-81
2022/03/20 19:44:43;;;;;;;17.30;15.50;;;12.50;60.20;;;;;;10399147;28;20201;-81
2022/03/20 19:49:47;;;;;;;16.40;13.80;;;12.40;59.40;;;;;;10435371;28;20241;-82
2022/03/20 19:54:52;;;;;;;16.83;15.07;;;12.50;60.70;;;;;;10422806;28;20193;-81
2022/03/20 19:59:57;;;;;;;16.00;14.40;;;12.30;59.90;;;;;;10407890;28;20227;-81
2022/03/20 20:04:59;;;;;;;14.30;12.80;;;12.20;60.00;;;;;;10418903;28;20198;-81
2022/03/20 20:10:01;;;;;;;17.23;15.47;;;12.10;60.40;;;;;;10397606;28;20218;-81
2022/03/20 20:15:06;;;;;;;17.70;15.37;;;12.10;60.20;;;;;;10416220;28;20198;-81
2022/03/20 20:20:12;;;;;;;19.83;17.77;;;11.90;60.70;;;;;;10415278;28;20307;-81
2022/03/20 20:25:16;;;;;;;19.10;17.10;;;11.80;61.30;;;;;;10409221;28;20293;-81
2022/03/20 20:30:20;;;;;;;15.93;14.43;;;11.70;62.60;;;;;;10409034;28;20222;-81
2022/03/20 20:35:23;;;;;;;16.47;14.77;;;11.70;59.60;;;;;;10425586;28;20213;-81
2022/03/20 20:40:25;;;;;;;15.50;13.10;;;11.80;59.70;;;;;;10396375;28;20230;-81
2022/03/20 20:45:28;;;;;;;15.87;14.17;;;11.80;59.10;;;;;;10423064;28;20208;-81
2022/03/20 20:50:30;;;;;;;17.73;15.90;;;11.80;59.90;;;;;;10418716;28;20238;-81
2022/03/20 20:55:33;;;;;;;17.63;15.70;;;11.80;58.60;;;;;;10404452;28;20220;-81
2022/03/20 21:00:36;;;;;;;16.43;14.60;;;11.90;57.50;;;;;;10438099;23;20234;-81
2022/03/20 21:05:38;;;;;;;16.77;13.60;;;11.80;57.30;;;;;;10435927;28;20203;-82
2022/03/20 21:10:58;;;;;;;18.37;13.90;;;11.80;56.70;;;;;;10388329;28;20309;-80
2022/03/20 21:16:03;;;;;;;13.97;12.60;;;11.90;56.50;;;;;;10384640;28;20194;-80
2022/03/20 21:21:06;;;;;;;15.13;13.57;;;11.90;56.90;;;;;;10387652;28;20211;-80
2022/03/20 21:26:09;;;;;;;15.23;13.30;;;11.80;57.20;;;;;;10384143;28;20293;-79
2022/03/20 21:31:12;;;;;;;14.67;13.17;;;11.80;57.90;;;;;;10375091;28;20231;-79
2022/03/20 21:36:14;;;;;;;13.17;11.83;;;11.70;57.80;;;;;;10375876;28;20197;-79
2022/03/20 21:41:17;;;;;;;14.73;13.33;;;11.70;59.70;;;;;;10391457;28;20631;-79
2022/03/20 21:46:23;;;;;;;13.90;12.37;;;11.60;59.80;;;;;;10388309;28;20281;-78
2022/03/20 21:51:25;;;;;;;15.03;13.43;;;11.60;59.40;;;;;;10399372;28;20210;-79
2022/03/20 21:56:27;;;;;;;15.10;13.53;;;11.60;62.10;;;;;;10391197;28;20650;-79
2022/03/20 22:01:31;;;;;;;13.83;12.47;;;11.50;62.20;;;;;;10434592;28;20194;-79
2022/03/20 22:06:33;;;;;;;14.17;12.83;;;11.40;61.70;;;;;;10434858;28;20214;-81
2022/03/20 22:11:35;;;;;;;15.20;13.70;;;11.30;61.90;;;;;;10433483;28;20218;-80
2022/03/20 22:16:39;;;;;;;14.27;12.70;;;11.10;61.50;;;;;;10431012;28;20226;-81
2022/03/20 22:21:42;;;;;;;16.90;14.20;;;10.90;62.80;;;;;;10443762;28;20190;-80
2022/03/20 22:26:45;;;;;;;14.83;13.17;;;10.70;64.00;;;;;;10407010;28;20224;-80
2022/03/20 22:31:49;;;;;;;16.73;15.03;;;10.50;63.40;;;;;;10424877;28;20304;-80
2022/03/20 22:42:10;;;;;;;15.10;13.50;;;10.10;67.90;;;;;;10418078;28;20206;-80
2022/03/20 22:47:14;;;;;;;15.40;14.00;;;10.00;67.10;;;;;;10414532;28;20218;-80
2022/03/20 22:52:16;;;;;;;19.13;14.50;;;10.00;65.70;;;;;;10415749;28;20221;-80
2022/03/20 22:57:19;;;;;;;17.83;13.97;;;9.80;67.50;;;;;;10415276;28;20231;-80
2022/03/20 23:02:22;;;;;;;15.20;13.60;;;9.60;67.40;;;;;;10418957;28;20198;-80
2022/03/20 23:07:24;;;;;;;15.67;12.93;;;9.50;68.40;;;;;;10421031;28;20225;-80
2022/03/20 23:12:27;;;;;;;14.87;13.23;;;9.30;68.70;;;;;;10416388;28;20218;-80
2022/03/20 23:17:30;;;;;;;15.07;13.57;;;9.20;68.30;;;;;;10418316;28;20221;-82
2022/03/20 23:22:33;;;;;;;14.50;12.80;;;9.20;68.10;;;;;;10418560;28;20636;-82
2022/03/20 23:27:36;;;;;;;15.30;13.47;;;9.10;69.00;;;;;;10411583;28;20228;-80
2022/03/20 23:32:40;;;;;;;15.30;13.30;;;9.00;69.30;;;;;;10419699;28;20223;-82
2022/03/20 23:37:42;;;;;;;13.50;12.20;;;8.90;70.50;;;;;;10416578;28;20500;-82
2022/03/20 23:48:06;;;;;;;15.10;13.50;;;8.70;70.20;;;;;;10421508;28;20213;-80
2022/03/20 23:53:08;;;;;;;15.03;13.43;;;8.70;69.70;;;;;;10425565;28;20214;-80
2022/03/20 23:58:11;;;;;;;16.77;14.63;;;8.60;70.20;;;;;;10432391;28;20312;-80
